Portada
METAR-TAF:

METAR-TAF

Aeroports :

Toamasina, Madagascar

latitud: 18-07S, longitud: 049-24E, altitud: 5 m

Observació

L'informe es va fer fa 38 minuts, a les 11:00 UTC
Vent 6 kt del Sud-Est
Temperatura 27°C
Humitat 66%
Pressió 1017 hPa
Visibilitat 10 km o més
Núvols disperses a una alçada de 1700 ft

METAR: FMMT 251100Z 14006KT 9999 SCT017 27/20 Q1017

Hora: 14:38 (11:38 UTC)

Pronòstic

L'informe es va fer fa 38 minuts, a les 11:00 UTC
Pronòstic vàlid del 25 a les 12 UTC al 26 a les 12 UTC
Vent 10 kt del Sud/Sud-Est
Visibilitat 10 km o més
Núvols disperses a una alçada de 1700 ft
Núvols disperses a una alçada de 3300 ft
Evolucionant progressivament
l' 25 a les 15 UTC al 25 a les 18 UTC
Vent 5 kt del Oest/Sud-Oest

TAF: FMMT 251100Z 2512/2612 16010KT 9999 SCT017 SCT033 BECMG 2515/2518 24005KT

Observacions i pronòstics meteorològics de més de 4000 aeroports (METAR i TAF).

Les estacions disponibles són els punts grocs i vermells al mapa.

Posi el ratolí al punt desitjat per veure el nom de l'estació.

Feu clic per veure les observacions i els pronòstics meteorològics.

Per canviar el mapa: feu clic els botons verds amb una creu de color negre per apropar; al botó verd amb un guió per allunyar la imatge; o en les fletxes verdes per a mapes adjacents.


METAR-TAF: